sensor_id;sensor_type;location;lat;lon;timestamp;P1;durP1;ratioP1;P2;durP2;ratioP2
47760;SDS011;33524;55.434;38.520;2022-08-25T07:05:53;12.77;;;7.78;;
47760;SDS011;33524;55.434;38.520;2022-08-25T07:08:23;9.40;;;8.27;;
47760;SDS011;33524;55.434;38.520;2022-08-25T07:10:51;9.20;;;7.47;;
47760;SDS011;33524;55.434;38.520;2022-08-25T07:13:21;9.07;;;7.93;;
47760;SDS011;33524;55.434;38.520;2022-08-25T07:15:52;11.25;;;7.45;;
47760;SDS011;33524;55.434;38.520;2022-08-25T07:18:22;11.70;;;7.20;;
47760;SDS011;33524;55.434;38.520;2022-08-25T07:20:50;9.85;;;7.35;;
47760;SDS011;33524;55.434;38.520;2022-08-25T07:23:23;9.57;;;6.95;;
47760;SDS011;33524;55.434;38.520;2022-08-25T07:25:52;10.95;;;7.35;;
47760;SDS011;33524;55.434;38.520;2022-08-25T07:28:21;7.00;;;5.70;;
47760;SDS011;33524;55.434;38.520;2022-08-25T07:30:51;8.05;;;5.65;;
47760;SDS011;33524;55.434;38.520;2022-08-25T07:33:20;7.20;;;5.20;;
47760;SDS011;33524;55.434;38.520;2022-08-25T07:35:47;8.30;;;5.30;;
47760;SDS011;33524;55.434;38.520;2022-08-25T07:38:17;6.20;;;5.00;;
47760;SDS011;33524;55.434;38.520;2022-08-25T07:40:46;11.43;;;5.97;;
47760;SDS011;33524;55.434;38.520;2022-08-25T07:43:23;7.00;;;5.22;;
47760;SDS011;33524;55.434;38.520;2022-08-25T07:45:51;6.53;;;5.60;;
47760;SDS011;33524;55.434;38.520;2022-08-25T07:48:19;6.25;;;5.18;;
47760;SDS011;33524;55.434;38.520;2022-08-25T07:50:49;7.65;;;5.30;;
47760;SDS011;33524;55.434;38.520;2022-08-25T07:53:17;8.02;;;5.80;;
47760;SDS011;33524;55.434;38.520;2022-08-25T07:55:45;13.05;;;6.87;;
47760;SDS011;33524;55.434;38.520;2022-08-25T07:58:13;14.55;;;7.32;;
47760;SDS011;33524;55.434;38.520;2022-08-25T08:00:42;9.93;;;7.55;;
47760;SDS011;33524;55.434;38.520;2022-08-25T08:03:16;13.32;;;7.55;;
47760;SDS011;33524;55.434;38.520;2022-08-25T08:06:11;8.93;;;6.82;;
47760;SDS011;33524;55.434;38.520;2022-08-25T08:08:45;10.73;;;7.70;;
47760;SDS011;33524;55.434;38.520;2022-08-25T08:11:16;8.80;;;6.07;;
47760;SDS011;33524;55.434;38.520;2022-08-25T08:13:50;7.93;;;5.45;;
47760;SDS011;33524;55.434;38.520;2022-08-25T08:16:20;12.30;;;6.30;;
47760;SDS011;33524;55.434;38.520;2022-08-25T08:18:50;11.05;;;7.78;;
47760;SDS011;33524;55.434;38.520;2022-08-25T08:21:20;15.25;;;7.60;;
47760;SDS011;33524;55.434;38.520;2022-08-25T08:26:25;10.27;;;6.87;;
47760;SDS011;33524;55.434;38.520;2022-08-25T08:29:14;14.23;;;7.32;;
47760;SDS011;33524;55.434;38.520;2022-08-25T08:31:42;10.25;;;6.75;;
47760;SDS011;33524;55.434;38.520;2022-08-25T08:34:15;11.93;;;6.72;;
47760;SDS011;33524;55.434;38.520;2022-08-25T08:36:44;11.32;;;6.93;;
47760;SDS011;33524;55.434;38.520;2022-08-25T08:39:12;20.58;;;8.63;;
47760;SDS011;33524;55.434;38.520;2022-08-25T08:45:33;12.48;;;8.38;;
47760;SDS011;33524;55.434;38.520;2022-08-25T08:51:04;8.70;;;6.97;;
47760;SDS011;33524;55.434;38.520;2022-08-25T08:56:28;15.77;;;11.15;;
47760;SDS011;33524;55.434;38.520;2022-08-25T08:59:16;13.90;;;9.60;;
47760;SDS011;33524;55.434;38.520;2022-08-25T09:01:57;11.88;;;7.35;;
47760;SDS011;33524;55.434;38.520;2022-08-25T09:04:35;25.30;;;12.55;;
47760;SDS011;33524;55.434;38.520;2022-08-25T09:07:13;12.88;;;8.60;;
47760;SDS011;33524;55.434;38.520;2022-08-25T09:09:47;17.52;;;11.82;;
47760;SDS011;33524;55.434;38.520;2022-08-25T09:12:21;10.10;;;7.87;;
47760;SDS011;33524;55.434;38.520;2022-08-25T09:15:48;19.17;;;16.48;;
47760;SDS011;33524;55.434;38.520;2022-08-25T09:21:33;25.80;;;22.02;;
47760;SDS011;33524;55.434;38.520;2022-08-25T09:31:18;41.70;;;31.95;;
47760;SDS011;33524;55.434;38.520;2022-08-25T09:33:28;48.60;;;38.05;;
47760;SDS011;33524;55.434;38.520;2022-08-25T09:36:01;46.05;;;36.78;;
47760;SDS011;33524;55.434;38.520;2022-08-25T09:38:35;36.42;;;30.85;;
47760;SDS011;33524;55.434;38.520;2022-08-25T09:41:05;31.95;;;24.48;;
47760;SDS011;33524;55.434;38.520;2022-08-25T09:43:36;32.38;;;25.55;;
47760;SDS011;33524;55.434;38.520;2022-08-25T09:46:16;37.38;;;26.98;;
47760;SDS011;33524;55.434;38.520;2022-08-25T09:48:53;27.90;;;21.17;;
47760;SDS011;33524;55.434;38.520;2022-08-25T09:51:31;25.35;;;19.73;;
47760;SDS011;33524;55.434;38.520;2022-08-25T09:56:47;24.83;;;19.15;;
47760;SDS011;33524;55.434;38.520;2022-08-25T09:59:30;23.75;;;19.37;;
47760;SDS011;33524;55.434;38.520;2022-08-25T10:02:04;27.48;;;19.10;;
47760;SDS011;33524;55.434;38.520;2022-08-25T10:04:50;22.90;;;18.73;;
47760;SDS011;33524;55.434;38.520;2022-08-25T10:07:26;22.55;;;17.83;;
47760;SDS011;33524;55.434;38.520;2022-08-25T10:09:59;21.35;;;16.73;;
47760;SDS011;33524;55.434;38.520;2022-08-25T10:12:38;23.77;;;19.70;;
47760;SDS011;33524;55.434;38.520;2022-08-25T10:15:20;26.58;;;18.92;;
47760;SDS011;33524;55.434;38.520;2022-08-25T10:18:15;23.75;;;19.33;;
47760;SDS011;33524;55.434;38.520;2022-08-25T10:23:35;23.23;;;19.40;;
47760;SDS011;33524;55.434;38.520;2022-08-25T10:26:10;24.90;;;19.02;;
47760;SDS011;33524;55.434;38.520;2022-08-25T10:31:34;28.00;;;19.85;;
47760;SDS011;33524;55.434;38.520;2022-08-25T10:37:17;27.45;;;18.37;;
47760;SDS011;33524;55.434;38.520;2022-08-25T10:45:50;23.25;;;19.10;;
47760;SDS011;33524;55.434;38.520;2022-08-25T10:49:03;24.60;;;20.08;;
47760;SDS011;33524;55.434;38.520;2022-08-25T10:57:21;32.22;;;21.83;;
47760;SDS011;33524;55.434;38.520;2022-08-25T11:02:40;35.65;;;24.52;;
47760;SDS011;33524;55.434;38.520;2022-08-25T11:05:24;27.35;;;21.87;;
47760;SDS011;33524;55.434;38.520;2022-08-25T11:07:58;22.08;;;17.65;;
47760;SDS011;33524;55.434;38.520;2022-08-25T11:10:46;23.23;;;17.65;;
47760;SDS011;33524;55.434;38.520;2022-08-25T11:13:29;19.67;;;15.15;;
47760;SDS011;33524;55.434;38.520;2022-08-25T11:16:02;22.52;;;15.73;;
47760;SDS011;33524;55.434;38.520;2022-08-25T11:18:55;19.00;;;14.50;;
47760;SDS011;33524;55.434;38.520;2022-08-25T11:21:39;21.27;;;17.23;;
47760;SDS011;33524;55.434;38.520;2022-08-25T11:27:16;19.15;;;17.10;;
47760;SDS011;33524;55.434;38.520;2022-08-25T11:30:03;22.10;;;19.75;;
47760;SDS011;33524;55.434;38.520;2022-08-25T11:32:36;25.08;;;21.12;;
47760;SDS011;33524;55.434;38.520;2022-08-25T11:35:07;23.60;;;20.00;;
47760;SDS011;33524;55.434;38.520;2022-08-25T11:44:18;13.62;;;10.15;;
47760;SDS011;33524;55.434;38.520;2022-08-25T11:53:00;12.98;;;9.77;;
47760;SDS011;33524;55.434;38.520;2022-08-25T11:58:16;10.80;;;9.35;;
47760;SDS011;33524;55.434;38.520;2022-08-25T12:00:47;13.68;;;9.32;;
47760;SDS011;33524;55.434;38.520;2022-08-25T12:30:12;16.50;;;10.25;;
47760;SDS011;33524;55.434;38.520;2022-08-25T12:38:09;12.98;;;7.87;;
47760;SDS011;33524;55.434;38.520;2022-08-25T12:43:26;9.50;;;8.50;;
47760;SDS011;33524;55.434;38.520;2022-08-25T12:48:55;13.10;;;10.35;;
47760;SDS011;33524;55.434;38.520;2022-08-25T12:57:21;11.00;;;9.30;;
47760;SDS011;33524;55.434;38.520;2022-08-25T12:59:56;13.43;;;11.20;;
47760;SDS011;33524;55.434;38.520;2022-08-25T13:05:44;13.95;;;11.23;;
47760;SDS011;33524;55.434;38.520;2022-08-25T13:11:05;13.85;;;9.60;;
47760;SDS011;33524;55.434;38.520;2022-08-25T13:16:28;12.20;;;9.23;;
47760;SDS011;33524;55.434;38.520;2022-08-25T13:18:57;10.68;;;9.40;;
47760;SDS011;33524;55.434;38.520;2022-08-25T13:24:08;14.13;;;10.23;;
47760;SDS011;33524;55.434;38.520;2022-08-25T13:26:52;16.95;;;11.48;;
47760;SDS011;33524;55.434;38.520;2022-08-25T13:29:25;9.07;;;8.02;;
47760;SDS011;33524;55.434;38.520;2022-08-25T13:32:02;10.50;;;8.95;;
47760;SDS011;33524;55.434;38.520;2022-08-25T13:34:37;13.75;;;9.95;;
47760;SDS011;33524;55.434;38.520;2022-08-25T13:37:11;13.68;;;9.55;;
47760;SDS011;33524;55.434;38.520;2022-08-25T13:40:10;12.90;;;9.00;;
47760;SDS011;33524;55.434;38.520;2022-08-25T13:42:40;10.73;;;9.63;;
47760;SDS011;33524;55.434;38.520;2022-08-25T13:45:25;10.63;;;9.15;;
47760;SDS011;33524;55.434;38.520;2022-08-25T13:47:57;9.82;;;8.13;;
47760;SDS011;33524;55.434;38.520;2022-08-25T13:53:02;11.32;;;8.60;;
47760;SDS011;33524;55.434;38.520;2022-08-25T13:55:39;13.45;;;9.43;;
47760;SDS011;33524;55.434;38.520;2022-08-25T13:58:19;15.05;;;9.40;;
47760;SDS011;33524;55.434;38.520;2022-08-25T14:07:04;12.27;;;8.75;;
47760;SDS011;33524;55.434;38.520;2022-08-25T14:09:40;10.07;;;8.70;;
47760;SDS011;33524;55.434;38.520;2022-08-25T14:17:44;12.43;;;8.35;;
47760;SDS011;33524;55.434;38.520;2022-08-25T14:20:28;10.70;;;8.05;;
47760;SDS011;33524;55.434;38.520;2022-08-25T14:23:19;8.57;;;7.67;;
47760;SDS011;33524;55.434;38.520;2022-08-25T14:25:52;10.13;;;7.70;;
47760;SDS011;33524;55.434;38.520;2022-08-25T14:28:24;11.25;;;7.95;;
47760;SDS011;33524;55.434;38.520;2022-08-25T14:30:57;8.80;;;7.43;;
47760;SDS011;33524;55.434;38.520;2022-08-25T14:33:39;11.07;;;7.80;;
47760;SDS011;33524;55.434;38.520;2022-08-25T14:36:16;9.10;;;7.43;;
47760;SDS011;33524;55.434;38.520;2022-08-25T14:38:47;8.40;;;7.50;;
47760;SDS011;33524;55.434;38.520;2022-08-25T14:41:22;8.85;;;7.45;;
47760;SDS011;33524;55.434;38.520;2022-08-25T14:43:53;9.48;;;7.60;;
47760;SDS011;33524;55.434;38.520;2022-08-25T14:46:26;8.32;;;7.53;;
47760;SDS011;33524;55.434;38.520;2022-08-25T14:48:57;10.82;;;7.65;;
47760;SDS011;33524;55.434;38.520;2022-08-25T14:51:29;11.45;;;7.28;;
47760;SDS011;33524;55.434;38.520;2022-08-25T14:53:59;11.15;;;8.15;;
47760;SDS011;33524;55.434;38.520;2022-08-25T14:56:31;8.77;;;7.60;;
47760;SDS011;33524;55.434;38.520;2022-08-25T14:59:00;10.57;;;7.87;;
47760;SDS011;33524;55.434;38.520;2022-08-25T15:01:31;11.55;;;8.30;;
47760;SDS011;33524;55.434;38.520;2022-08-25T15:04:01;11.55;;;8.23;;
47760;SDS011;33524;55.434;38.520;2022-08-25T15:06:35;8.75;;;7.82;;
47760;SDS011;33524;55.434;38.520;2022-08-25T15:09:04;11.48;;;8.20;;
47760;SDS011;33524;55.434;38.520;2022-08-25T15:11:42;11.48;;;7.68;;
47760;SDS011;33524;55.434;38.520;2022-08-25T15:14:12;11.88;;;8.27;;
47760;SDS011;33524;55.434;38.520;2022-08-25T15:16:54;11.57;;;8.20;;
47760;SDS011;33524;55.434;38.520;2022-08-25T15:19:24;16.60;;;8.15;;
47760;SDS011;33524;55.434;38.520;2022-08-25T15:21:53;15.52;;;8.18;;
47760;SDS011;33524;55.434;38.520;2022-08-25T15:24:28;9.13;;;8.15;;
47760;SDS011;33524;55.434;38.520;2022-08-25T15:27:02;9.40;;;7.70;;
47760;SDS011;33524;55.434;38.520;2022-08-25T15:29:36;8.48;;;7.55;;
47760;SDS011;33524;55.434;38.520;2022-08-25T15:32:05;17.62;;;8.90;;
47760;SDS011;33524;55.434;38.520;2022-08-25T15:34:34;12.65;;;8.40;;
47760;SDS011;33524;55.434;38.520;2022-08-25T15:37:07;11.12;;;7.95;;
47760;SDS011;33524;55.434;38.520;2022-08-25T15:39:41;10.68;;;8.15;;
47760;SDS011;33524;55.434;38.520;2022-08-25T15:42:11;10.73;;;8.00;;
47760;SDS011;33524;55.434;38.520;2022-08-25T15:44:40;11.15;;;8.57;;
47760;SDS011;33524;55.434;38.520;2022-08-25T15:47:20;10.25;;;8.18;;
47760;SDS011;33524;55.434;38.520;2022-08-25T15:49:49;8.95;;;8.05;;
47760;SDS011;33524;55.434;38.520;2022-08-25T15:52:29;10.70;;;7.90;;
47760;SDS011;33524;55.434;38.520;2022-08-25T15:55:12;8.63;;;7.68;;
47760;SDS011;33524;55.434;38.520;2022-08-25T15:57:41;12.13;;;8.55;;
47760;SDS011;33524;55.434;38.520;2022-08-25T16:00:10;9.65;;;7.47;;
47760;SDS011;33524;55.434;38.520;2022-08-25T16:02:43;10.15;;;7.85;;
47760;SDS011;33524;55.434;38.520;2022-08-25T16:05:12;10.05;;;7.95;;
47760;SDS011;33524;55.434;38.520;2022-08-25T16:07:42;9.50;;;7.28;;
47760;SDS011;33524;55.434;38.520;2022-08-25T16:10:18;11.88;;;8.30;;
47760;SDS011;33524;55.434;38.520;2022-08-25T16:12:47;13.45;;;9.10;;
47760;SDS011;33524;55.434;38.520;2022-08-25T16:15:15;14.02;;;10.43;;
47760;SDS011;33524;55.434;38.520;2022-08-25T16:17:50;18.87;;;15.50;;
47760;SDS011;33524;55.434;38.520;2022-08-25T16:20:18;25.70;;;17.92;;
47760;SDS011;33524;55.434;38.520;2022-08-25T16:22:49;28.58;;;16.80;;
47760;SDS011;33524;55.434;38.520;2022-08-25T16:25:17;20.30;;;12.73;;
47760;SDS011;33524;55.434;38.520;2022-08-25T16:27:47;20.08;;;11.50;;
47760;SDS011;33524;55.434;38.520;2022-08-25T16:30:15;18.98;;;10.75;;
47760;SDS011;33524;55.434;38.520;2022-08-25T16:32:44;13.68;;;10.35;;
47760;SDS011;33524;55.434;38.520;2022-08-25T16:35:13;24.75;;;12.18;;
47760;SDS011;33524;55.434;38.520;2022-08-25T16:37:41;24.55;;;11.77;;
47760;SDS011;33524;55.434;38.520;2022-08-25T16:40:29;27.37;;;11.63;;
47760;SDS011;33524;55.434;38.520;2022-08-25T16:42:57;20.48;;;11.35;;
47760;SDS011;33524;55.434;38.520;2022-08-25T16:45:25;37.60;;;13.50;;
47760;SDS011;33524;55.434;38.520;2022-08-25T16:47:56;34.43;;;13.67;;
47760;SDS011;33524;55.434;38.520;2022-08-25T16:50:24;32.97;;;14.00;;
47760;SDS011;33524;55.434;38.520;2022-08-25T16:52:54;25.08;;;13.65;;
47760;SDS011;33524;55.434;38.520;2022-08-25T16:55:41;36.78;;;14.80;;
47760;SDS011;33524;55.434;38.520;2022-08-25T16:58:09;29.05;;;13.05;;
47760;SDS011;33524;55.434;38.520;2022-08-25T17:00:39;35.70;;;14.68;;
47760;SDS011;33524;55.434;38.520;2022-08-25T17:03:11;39.37;;;15.50;;
47760;SDS011;33524;55.434;38.520;2022-08-25T17:05:40;36.15;;;15.43;;
47760;SDS011;33524;55.434;38.520;2022-08-25T17:08:09;31.40;;;15.25;;
47760;SDS011;33524;55.434;38.520;2022-08-25T17:11:11;36.67;;;15.15;;
47760;SDS011;33524;55.434;38.520;2022-08-25T17:13:43;39.97;;;16.25;;
47760;SDS011;33524;55.434;38.520;2022-08-25T17:16:16;39.55;;;14.45;;
47760;SDS011;33524;55.434;38.520;2022-08-25T17:18:46;33.58;;;15.13;;
47760;SDS011;33524;55.434;38.520;2022-08-25T17:21:15;27.73;;;14.87;;
47760;SDS011;33524;55.434;38.520;2022-08-25T17:23:51;28.67;;;15.55;;
47760;SDS011;33524;55.434;38.520;2022-08-25T17:26:21;28.75;;;14.93;;
47760;SDS011;33524;55.434;38.520;2022-08-25T17:28:58;26.73;;;14.57;;
47760;SDS011;33524;55.434;38.520;2022-08-25T17:31:27;35.55;;;17.30;;
47760;SDS011;33524;55.434;38.520;2022-08-25T17:33:57;36.85;;;18.33;;
47760;SDS011;33524;55.434;38.520;2022-08-25T17:36:25;32.58;;;18.33;;
47760;SDS011;33524;55.434;38.520;2022-08-25T17:38:54;32.13;;;19.48;;
47760;SDS011;33524;55.434;38.520;2022-08-25T17:41:23;37.33;;;20.62;;
47760;SDS011;33524;55.434;38.520;2022-08-25T17:43:52;38.83;;;22.08;;
47760;SDS011;33524;55.434;38.520;2022-08-25T17:46:20;37.17;;;20.67;;
47760;SDS011;33524;55.434;38.520;2022-08-25T17:48:48;52.47;;;25.95;;
47760;SDS011;33524;55.434;38.520;2022-08-25T17:51:17;40.33;;;24.60;;
47760;SDS011;33524;55.434;38.520;2022-08-25T17:53:45;35.60;;;20.50;;
47760;SDS011;33524;55.434;38.520;2022-08-25T17:56:16;35.53;;;21.25;;
47760;SDS011;33524;55.434;38.520;2022-08-25T17:58:45;52.13;;;26.02;;
47760;SDS011;33524;55.434;38.520;2022-08-25T18:01:18;49.55;;;25.02;;
47760;SDS011;33524;55.434;38.520;2022-08-25T18:03:49;46.83;;;22.62;;
47760;SDS011;33524;55.434;38.520;2022-08-25T18:06:18;45.97;;;23.80;;
47760;SDS011;33524;55.434;38.520;2022-08-25T18:08:46;47.62;;;24.50;;
47760;SDS011;33524;55.434;38.520;2022-08-25T18:11:20;42.15;;;24.67;;
47760;SDS011;33524;55.434;38.520;2022-08-25T18:13:50;46.92;;;25.20;;
47760;SDS011;33524;55.434;38.520;2022-08-25T18:16:21;41.42;;;23.87;;
47760;SDS011;33524;55.434;38.520;2022-08-25T18:18:50;47.83;;;27.17;;
47760;SDS011;33524;55.434;38.520;2022-08-25T18:21:20;41.50;;;24.12;;
47760;SDS011;33524;55.434;38.520;2022-08-25T18:23:56;37.70;;;22.27;;
47760;SDS011;33524;55.434;38.520;2022-08-25T18:26:26;42.28;;;25.02;;
47760;SDS011;33524;55.434;38.520;2022-08-25T18:28:53;46.45;;;23.60;;
47760;SDS011;33524;55.434;38.520;2022-08-25T18:31:22;39.28;;;24.02;;
47760;SDS011;33524;55.434;38.520;2022-08-25T18:33:50;44.00;;;22.95;;
47760;SDS011;33524;55.434;38.520;2022-08-25T18:36:18;35.30;;;23.20;;
47760;SDS011;33524;55.434;38.520;2022-08-25T18:38:47;41.55;;;28.05;;
47760;SDS011;33524;55.434;38.520;2022-08-25T18:41:40;50.75;;;30.60;;
47760;SDS011;33524;55.434;38.520;2022-08-25T18:44:11;56.78;;;33.70;;
47760;SDS011;33524;55.434;38.520;2022-08-25T18:46:42;57.17;;;36.40;;
47760;SDS011;33524;55.434;38.520;2022-08-25T18:49:11;55.67;;;34.17;;
47760;SDS011;33524;55.434;38.520;2022-08-25T18:51:43;63.60;;;39.15;;
47760;SDS011;33524;55.434;38.520;2022-08-25T18:54:13;68.85;;;40.65;;
47760;SDS011;33524;55.434;38.520;2022-08-25T18:56:51;66.07;;;39.80;;
47760;SDS011;33524;55.434;38.520;2022-08-25T18:59:20;64.82;;;44.42;;
47760;SDS011;33524;55.434;38.520;2022-08-25T19:01:51;61.20;;;40.72;;
47760;SDS011;33524;55.434;38.520;2022-08-25T19:04:20;59.63;;;36.85;;
47760;SDS011;33524;55.434;38.520;2022-08-25T19:06:58;53.38;;;35.70;;
47760;SDS011;33524;55.434;38.520;2022-08-25T19:09:27;52.33;;;36.10;;
47760;SDS011;33524;55.434;38.520;2022-08-25T19:11:56;45.72;;;29.87;;
47760;SDS011;33524;55.434;38.520;2022-08-25T19:14:25;50.47;;;33.10;;
47760;SDS011;33524;55.434;38.520;2022-08-25T19:16:53;46.28;;;30.65;;
47760;SDS011;33524;55.434;38.520;2022-08-25T19:19:24;45.20;;;29.37;;
47760;SDS011;33524;55.434;38.520;2022-08-25T19:21:52;40.08;;;27.40;;
47760;SDS011;33524;55.434;38.520;2022-08-25T19:24:20;39.03;;;27.55;;
47760;SDS011;33524;55.434;38.520;2022-08-25T19:26:51;38.72;;;29.30;;
47760;SDS011;33524;55.434;38.520;2022-08-25T19:29:21;48.15;;;37.33;;
47760;SDS011;33524;55.434;38.520;2022-08-25T19:31:50;70.37;;;42.83;;
47760;SDS011;33524;55.434;38.520;2022-08-25T19:34:23;65.25;;;43.13;;
47760;SDS011;33524;55.434;38.520;2022-08-25T19:36:57;63.38;;;42.65;;
47760;SDS011;33524;55.434;38.520;2022-08-25T19:39:30;68.12;;;43.75;;
47760;SDS011;33524;55.434;38.520;2022-08-25T19:42:00;68.87;;;42.08;;
47760;SDS011;33524;55.434;38.520;2022-08-25T19:44:29;65.55;;;41.92;;
47760;SDS011;33524;55.434;38.520;2022-08-25T19:46:58;60.30;;;40.83;;
47760;SDS011;33524;55.434;38.520;2022-08-25T19:49:31;61.55;;;39.05;;
47760;SDS011;33524;55.434;38.520;2022-08-25T19:52:04;62.30;;;39.90;;
47760;SDS011;33524;55.434;38.520;2022-08-25T19:54:41;47.45;;;30.15;;
47760;SDS011;33524;55.434;38.520;2022-08-25T19:57:13;57.05;;;37.00;;
47760;SDS011;33524;55.434;38.520;2022-08-25T20:00:08;40.85;;;25.42;;
47760;SDS011;33524;55.434;38.520;2022-08-25T20:02:43;54.65;;;35.65;;
47760;SDS011;33524;55.434;38.520;2022-08-25T20:05:12;53.28;;;35.80;;
47760;SDS011;33524;55.434;38.520;2022-08-25T20:07:50;63.08;;;37.50;;
47760;SDS011;33524;55.434;38.520;2022-08-25T20:10:20;57.22;;;35.42;;
47760;SDS011;33524;55.434;38.520;2022-08-25T20:12:52;52.72;;;32.88;;
47760;SDS011;33524;55.434;38.520;2022-08-25T20:15:21;26.52;;;18.98;;
47760;SDS011;33524;55.434;38.520;2022-08-25T20:17:49;23.67;;;17.55;;
47760;SDS011;33524;55.434;38.520;2022-08-25T20:20:23;64.65;;;40.47;;
47760;SDS011;33524;55.434;38.520;2022-08-25T20:23:01;60.97;;;37.45;;
47760;SDS011;33524;55.434;38.520;2022-08-25T20:25:49;61.97;;;40.88;;
47760;SDS011;33524;55.434;38.520;2022-08-25T20:28:17;54.65;;;34.83;;
47760;SDS011;33524;55.434;38.520;2022-08-25T20:30:45;70.93;;;46.50;;
47760;SDS011;33524;55.434;38.520;2022-08-25T20:33:13;70.90;;;44.58;;
47760;SDS011;33524;55.434;38.520;2022-08-25T20:35:49;67.70;;;41.88;;
47760;SDS011;33524;55.434;38.520;2022-08-25T20:38:19;66.62;;;43.30;;
47760;SDS011;33524;55.434;38.520;2022-08-25T20:40:47;62.55;;;39.92;;
47760;SDS011;33524;55.434;38.520;2022-08-25T20:43:15;63.13;;;35.15;;
47760;SDS011;33524;55.434;38.520;2022-08-25T20:45:47;53.08;;;35.33;;
47760;SDS011;33524;55.434;38.520;2022-08-25T20:48:15;53.50;;;36.10;;
47760;SDS011;33524;55.434;38.520;2022-08-25T20:50:43;58.35;;;36.35;;
47760;SDS011;33524;55.434;38.520;2022-08-25T20:53:23;49.17;;;33.72;;
47760;SDS011;33524;55.434;38.520;2022-08-25T20:55:52;60.15;;;38.35;;
47760;SDS011;33524;55.434;38.520;2022-08-25T20:58:20;59.85;;;38.42;;
47760;SDS011;33524;55.434;38.520;2022-08-25T21:00:49;56.45;;;38.30;;
47760;SDS011;33524;55.434;38.520;2022-08-25T21:03:18;58.70;;;38.60;;
47760;SDS011;33524;55.434;38.520;2022-08-25T21:05:46;48.00;;;34.50;;
47760;SDS011;33524;55.434;38.520;2022-08-25T21:08:23;60.40;;;38.97;;
47760;SDS011;33524;55.434;38.520;2022-08-25T21:10:54;60.92;;;39.53;;
47760;SDS011;33524;55.434;38.520;2022-08-25T21:13:22;54.33;;;37.55;;
47760;SDS011;33524;55.434;38.520;2022-08-25T21:15:50;64.65;;;37.78;;
47760;SDS011;33524;55.434;38.520;2022-08-25T21:18:18;60.75;;;36.35;;
47760;SDS011;33524;55.434;38.520;2022-08-25T21:20:46;44.20;;;31.10;;
47760;SDS011;33524;55.434;38.520;2022-08-25T21:23:14;58.90;;;34.90;;
47760;SDS011;33524;55.434;38.520;2022-08-25T21:25:42;59.28;;;37.55;;
47760;SDS011;33524;55.434;38.520;2022-08-25T21:28:10;61.17;;;40.35;;
47760;SDS011;33524;55.434;38.520;2022-08-25T21:30:41;65.80;;;41.65;;
47760;SDS011;33524;55.434;38.520;2022-08-25T21:33:13;70.97;;;41.83;;
47760;SDS011;33524;55.434;38.520;2022-08-25T21:35:42;72.18;;;40.55;;
47760;SDS011;33524;55.434;38.520;2022-08-25T21:38:12;61.92;;;40.75;;
47760;SDS011;33524;55.434;38.520;2022-08-25T21:40:40;59.47;;;38.83;;
47760;SDS011;33524;55.434;38.520;2022-08-25T21:43:11;59.38;;;37.40;;
47760;SDS011;33524;55.434;38.520;2022-08-25T21:45:40;67.70;;;40.17;;
47760;SDS011;33524;55.434;38.520;2022-08-25T21:48:13;59.40;;;42.10;;
47760;SDS011;33524;55.434;38.520;2022-08-25T21:50:41;67.10;;;41.67;;
47760;SDS011;33524;55.434;38.520;2022-08-25T21:53:09;65.28;;;41.35;;
47760;SDS011;33524;55.434;38.520;2022-08-25T21:55:38;58.92;;;39.35;;
47760;SDS011;33524;55.434;38.520;2022-08-25T21:58:08;61.47;;;38.72;;
47760;SDS011;33524;55.434;38.520;2022-08-25T22:00:36;60.38;;;36.53;;
47760;SDS011;33524;55.434;38.520;2022-08-25T22:03:05;61.28;;;38.88;;
47760;SDS011;33524;55.434;38.520;2022-08-25T22:05:34;59.47;;;40.12;;
47760;SDS011;33524;55.434;38.520;2022-08-25T22:08:03;66.65;;;38.88;;
47760;SDS011;33524;55.434;38.520;2022-08-25T22:10:32;66.05;;;41.25;;
47760;SDS011;33524;55.434;38.520;2022-08-25T22:12:59;58.90;;;39.17;;
47760;SDS011;33524;55.434;38.520;2022-08-25T22:15:30;67.03;;;39.90;;
47760;SDS011;33524;55.434;38.520;2022-08-25T22:17:58;61.80;;;39.63;;
47760;SDS011;33524;55.434;38.520;2022-08-25T22:20:26;57.25;;;38.25;;
47760;SDS011;33524;55.434;38.520;2022-08-25T22:22:54;55.47;;;37.45;;
47760;SDS011;33524;55.434;38.520;2022-08-25T22:25:23;42.62;;;29.02;;
47760;SDS011;33524;55.434;38.520;2022-08-25T22:27:51;56.72;;;35.72;;
47760;SDS011;33524;55.434;38.520;2022-08-25T22:30:23;56.03;;;36.45;;
47760;SDS011;33524;55.434;38.520;2022-08-25T22:32:55;56.63;;;34.57;;
47760;SDS011;33524;55.434;38.520;2022-08-25T22:35:25;59.70;;;38.55;;
47760;SDS011;33524;55.434;38.520;2022-08-25T22:37:54;63.83;;;41.33;;
47760;SDS011;33524;55.434;38.520;2022-08-25T22:40:24;54.72;;;35.92;;
47760;SDS011;33524;55.434;38.520;2022-08-25T22:42:55;66.70;;;43.30;;
47760;SDS011;33524;55.434;38.520;2022-08-25T22:45:24;67.03;;;41.45;;
47760;SDS011;33524;55.434;38.520;2022-08-25T22:47:53;70.35;;;44.25;;
47760;SDS011;33524;55.434;38.520;2022-08-25T22:50:21;68.97;;;46.28;;
47760;SDS011;33524;55.434;38.520;2022-08-25T22:52:51;69.20;;;43.87;;
47760;SDS011;33524;55.434;38.520;2022-08-25T22:55:19;67.30;;;41.53;;
47760;SDS011;33524;55.434;38.520;2022-08-25T22:57:48;57.13;;;37.47;;
47760;SDS011;33524;55.434;38.520;2022-08-25T23:00:20;64.20;;;42.58;;
47760;SDS011;33524;55.434;38.520;2022-08-25T23:02:51;63.83;;;40.53;;
47760;SDS011;33524;55.434;38.520;2022-08-25T23:05:19;64.20;;;40.47;;
47760;SDS011;33524;55.434;38.520;2022-08-25T23:07:48;63.97;;;40.78;;
47760;SDS011;33524;55.434;38.520;2022-08-25T23:10:17;65.53;;;41.65;;
47760;SDS011;33524;55.434;38.520;2022-08-25T23:12:46;58.67;;;35.50;;
47760;SDS011;33524;55.434;38.520;2022-08-25T23:15:14;59.35;;;40.65;;
47760;SDS011;33524;55.434;38.520;2022-08-25T23:17:42;62.90;;;39.75;;
47760;SDS011;33524;55.434;38.520;2022-08-25T23:20:10;42.95;;;29.23;;
47760;SDS011;33524;55.434;38.520;2022-08-25T23:22:57;72.00;;;41.03;;
47760;SDS011;33524;55.434;38.520;2022-08-25T23:25:25;58.28;;;37.92;;
47760;SDS011;33524;55.434;38.520;2022-08-25T23:27:53;64.00;;;39.83;;
47760;SDS011;33524;55.434;38.520;2022-08-25T23:30:21;58.63;;;41.20;;
47760;SDS011;33524;55.434;38.520;2022-08-25T23:32:53;60.30;;;38.33;;
47760;SDS011;33524;55.434;38.520;2022-08-25T23:35:24;59.75;;;37.58;;
47760;SDS011;33524;55.434;38.520;2022-08-25T23:37:55;62.60;;;39.67;;
47760;SDS011;33524;55.434;38.520;2022-08-25T23:40:24;49.72;;;32.00;;
47760;SDS011;33524;55.434;38.520;2022-08-25T23:42:53;65.47;;;40.08;;
47760;SDS011;33524;55.434;38.520;2022-08-25T23:45:21;51.03;;;33.20;;
47760;SDS011;33524;55.434;38.520;2022-08-25T23:47:52;69.50;;;43.10;;
47760;SDS011;33524;55.434;38.520;2022-08-25T23:50:19;69.78;;;43.63;;
47760;SDS011;33524;55.434;38.520;2022-08-25T23:52:48;71.20;;;42.88;;
47760;SDS011;33524;55.434;38.520;2022-08-25T23:55:16;70.32;;;42.92;;
47760;SDS011;33524;55.434;38.520;2022-08-25T23:57:44;81.95;;;50.40;;
